createdAt,value
2023-02-24T00:04:59.767Z,65.24
2023-02-24T00:10:01.283Z,64.86
2023-02-24T00:15:03.656Z,63.49
2023-02-24T00:20:05.654Z,65.25
2023-02-24T00:25:07.648Z,65.91
2023-02-24T00:30:09.973Z,67.93
2023-02-24T00:35:11.442Z,67.24
2023-02-24T00:40:13.195Z,67.17
2023-02-24T00:45:14.766Z,67.37
2023-02-24T00:50:16.593Z,67.60
2023-02-24T00:55:18.095Z,66.73
2023-02-24T01:00:20.071Z,66.30
2023-02-24T01:05:21.652Z,66.18
2023-02-24T01:10:23.406Z,66.28
2023-02-24T01:15:25.095Z,65.50
2023-02-24T01:20:26.618Z,65.18
2023-02-24T01:25:28.161Z,66.57
2023-02-24T01:30:29.645Z,67.05
2023-02-24T01:35:32.322Z,65.75
2023-02-24T01:40:33.982Z,66.92
2023-02-24T01:45:36.063Z,66.06
2023-02-24T01:50:38.775Z,65.77
2023-02-24T01:55:46.932Z,66.30
2023-02-24T02:00:49.957Z,67.19
2023-02-24T02:05:54.118Z,67.41
2023-02-24T02:11:00.846Z,66.21
2023-02-24T02:16:02.338Z,66.26
2023-02-24T02:21:15.679Z,65.53
2023-02-24T02:27:05.307Z,65.60
2023-02-24T02:32:25.210Z,66.59
2023-02-24T02:37:26.693Z,67.35
2023-02-24T02:42:30.581Z,66.75
2023-02-24T02:47:42.041Z,66.52
2023-02-24T02:52:51.979Z,67.75
2023-02-24T02:57:55.172Z,67.18
2023-02-24T03:03:07.528Z,67.26
2023-02-24T03:08:11.024Z,66.90
2023-02-24T03:13:13.760Z,67.01
2023-02-24T03:18:29.459Z,66.20
2023-02-24T03:23:32.450Z,65.70
2023-02-24T03:28:42.060Z,66.08
2023-02-24T03:34:02.778Z,65.76
2023-02-24T03:39:06.728Z,66.94
2023-02-24T03:44:12.910Z,67.27
2023-02-24T03:49:15.311Z,67.57
2023-02-24T03:54:18.538Z,68.05
2023-02-24T03:59:27.487Z,68.36
2023-02-24T04:04:34.023Z,67.33
2023-02-24T04:09:56.460Z,66.84
2023-02-24T04:15:20.336Z,67.67
2023-02-24T04:20:26.115Z,67.96
2023-02-24T04:25:31.754Z,67.34
2023-02-24T04:30:40.629Z,67.46
2023-02-24T04:35:45.664Z,67.81
2023-02-24T04:40:47.222Z,68.13
2023-02-24T04:45:49.907Z,67.26
2023-02-24T04:50:51.442Z,66.66
2023-02-24T04:55:53.481Z,66.97
2023-02-24T05:00:55.465Z,66.63
2023-02-24T05:05:59.120Z,67.59
2023-02-24T05:11:00.957Z,66.51
2023-02-24T05:16:08.437Z,66.81
2023-02-24T05:21:15.802Z,67.11
2023-02-24T05:26:19.755Z,66.90
2023-02-24T05:31:24.739Z,67.47
2023-02-24T05:36:29.404Z,68.02
2023-02-24T05:41:30.889Z,67.84
2023-02-24T05:46:35.334Z,67.90
2023-02-24T05:51:40.375Z,68.13
2023-02-24T05:56:41.976Z,67.90
2023-02-24T06:01:44.018Z,67.81
2023-02-24T06:06:45.536Z,67.93
2023-02-24T06:11:47.079Z,67.96
2023-02-24T06:16:48.684Z,68.80
2023-02-24T06:21:50.215Z,68.35
2023-02-24T06:26:51.783Z,69.05
2023-02-24T06:31:53.394Z,68.54
2023-02-24T06:36:54.893Z,68.72
2023-02-24T06:41:56.388Z,69.54
2023-02-24T06:46:58.593Z,69.17
2023-02-24T06:52:00.455Z,69.72
2023-02-24T06:57:02.122Z,69.60
2023-02-24T07:02:03.638Z,69.52
2023-02-24T07:07:05.132Z,69.06
2023-02-24T07:12:06.667Z,68.00
2023-02-24T07:17:08.557Z,67.92
2023-02-24T07:22:10.715Z,68.00
2023-02-24T07:27:14.963Z,68.63
2023-02-24T07:32:17.161Z,68.47
2023-02-24T07:37:18.667Z,68.64
2023-02-24T07:42:20.166Z,68.83
2023-02-24T07:47:25.914Z,68.65
2023-02-24T07:52:27.444Z,67.92
2023-02-24T07:57:28.978Z,66.58
2023-02-24T08:02:30.495Z,65.82
2023-02-24T08:07:32.063Z,66.41
2023-02-24T08:12:33.600Z,66.43
2023-02-24T08:17:35.524Z,66.30
2023-02-24T08:22:36.973Z,66.41
2023-02-24T08:27:38.421Z,66.37
2023-02-24T08:32:42.928Z,65.83
2023-02-24T08:37:54.892Z,64.73
2023-02-24T08:43:01.320Z,64.75
2023-02-24T08:48:02.868Z,64.99
2023-02-24T08:53:04.350Z,64.45
2023-02-24T08:58:05.825Z,64.90
2023-02-24T09:03:08.304Z,63.33
2023-02-24T09:08:09.803Z,61.73
2023-02-24T09:13:11.311Z,62.17
2023-02-24T09:18:12.822Z,61.05
2023-02-24T09:23:14.400Z,60.76
2023-02-24T09:28:21.491Z,59.64
2023-02-24T09:33:27.464Z,59.79
2023-02-24T09:38:30.450Z,58.62
2023-02-24T09:43:36.504Z,58.04
2023-02-24T09:48:44.156Z,57.51
2023-02-24T09:53:45.645Z,56.51
2023-02-24T09:59:04.996Z,56.41
2023-02-24T10:04:25.470Z,56.34
2023-02-24T10:09:30.864Z,56.79
2023-02-24T10:15:00.372Z,56.57
2023-02-24T10:20:14.987Z,56.37
2023-02-24T10:25:29.304Z,55.24
2023-02-24T10:30:39.724Z,54.18
2023-02-24T10:35:41.274Z,51.90
2023-02-24T10:40:53.306Z,49.20
2023-02-24T10:45:55.401Z,45.43
2023-02-24T10:50:57.036Z,42.94
2023-02-24T10:55:59.933Z,42.87
2023-02-24T11:01:12.039Z,43.67
2023-02-24T11:06:32.632Z,41.90
2023-02-24T11:11:34.900Z,42.15
2023-02-24T11:16:51.578Z,40.60
2023-02-24T11:21:55.577Z,37.25
2023-02-24T11:26:57.568Z,36.75
2023-02-24T11:32:23.617Z,37.58
2023-02-24T11:37:46.299Z,39.21
2023-02-24T11:43:06.135Z,38.14
2023-02-24T11:48:17.689Z,36.12
2023-02-24T11:53:32.405Z,32.50
2023-02-24T11:58:45.060Z,28.98
2023-02-24T12:03:55.488Z,27.11
2023-02-24T12:09:03.476Z,27.20
2023-02-24T12:14:21.453Z,27.47
2023-02-24T12:19:31.573Z,25.72
2023-02-24T12:24:36.381Z,26.68
2023-02-24T12:29:37.837Z,26.30
2023-02-24T12:34:56.764Z,25.58
2023-02-24T12:40:01.091Z,23.88
2023-02-24T12:45:14.578Z,23.25
2023-02-24T12:50:22.226Z,21.64
2023-02-24T12:55:34.816Z,22.80
2023-02-24T13:00:45.407Z,22.09
2023-02-24T13:06:18.872Z,25.27
2023-02-24T13:11:42.106Z,29.39
2023-02-24T13:16:43.732Z,31.96
2023-02-24T13:21:56.935Z,32.99
2023-02-24T13:27:14.358Z,34.67
2023-02-24T13:32:45.157Z,33.28
2023-02-24T13:37:48.322Z,36.33
2023-02-24T13:43:00.561Z,36.91
2023-02-24T13:48:22.093Z,37.28
2023-02-24T13:53:33.241Z,37.74
2023-02-24T13:58:40.376Z,38.74
2023-02-24T14:03:46.341Z,38.52
2023-02-24T14:08:52.784Z,38.59
2023-02-24T14:13:56.454Z,38.31
2023-02-24T14:19:02.562Z,37.75
2023-02-24T14:24:12.191Z,36.97
2023-02-24T14:29:18.951Z,36.64
2023-02-24T14:34:29.629Z,38.68
2023-02-24T14:39:32.500Z,39.29
2023-02-24T14:44:34.196Z,39.47
2023-02-24T14:49:36.139Z,39.92
2023-02-24T14:54:51.255Z,39.33
2023-02-24T14:59:57.327Z,40.26
2023-02-24T15:04:59.760Z,40.82
2023-02-24T15:10:03.483Z,40.91
2023-02-24T15:15:19.957Z,41.11
2023-02-24T15:20:38.609Z,41.59
2023-02-24T15:25:45.851Z,41.69
2023-02-24T15:31:06.224Z,42.19
2023-02-24T15:36:17.977Z,42.44
2023-02-24T15:41:19.857Z,42.42
2023-02-24T15:46:23.184Z,42.96
2023-02-24T15:51:41.231Z,43.38
2023-02-24T15:56:46.657Z,43.86
2023-02-24T16:01:48.387Z,44.19
2023-02-24T16:06:53.607Z,43.45
2023-02-24T16:11:55.373Z,43.49
2023-02-24T16:16:57.146Z,42.88
2023-02-24T16:21:58.626Z,43.75
2023-02-24T16:27:00.178Z,45.52
2023-02-24T16:32:01.784Z,43.95
2023-02-24T16:37:03.642Z,44.65
2023-02-24T16:42:05.372Z,45.13
2023-02-24T16:47:11.878Z,44.62
2023-02-24T16:52:13.811Z,46.43
2023-02-24T16:57:15.281Z,46.43
2023-02-24T17:02:21.604Z,46.91
2023-02-24T17:07:23.206Z,47.49
2023-02-24T17:12:24.692Z,47.61
2023-02-24T17:17:26.228Z,47.83
2023-02-24T17:22:27.785Z,48.18
2023-02-24T17:27:29.272Z,48.48
2023-02-24T17:32:30.743Z,48.55
2023-02-24T17:37:32.278Z,48.90
2023-02-24T17:42:34.279Z,48.91
2023-02-24T17:47:36.194Z,50.22
2023-02-24T17:52:37.799Z,50.67
2023-02-24T17:57:39.317Z,50.85
2023-02-24T18:02:41.559Z,51.39
2023-02-24T18:07:43.146Z,51.30
2023-02-24T18:12:44.687Z,51.28
2023-02-24T18:17:46.252Z,50.36
2023-02-24T18:22:47.777Z,50.41
2023-02-24T18:27:49.276Z,50.88
2023-02-24T18:32:50.899Z,49.62
2023-02-24T18:37:52.643Z,49.93
2023-02-24T18:42:55.340Z,50.35
2023-02-24T18:47:56.856Z,50.43
2023-02-24T18:52:58.330Z,50.52
2023-02-24T18:57:59.846Z,51.46
2023-02-24T19:03:01.458Z,54.00
2023-02-24T19:08:03.357Z,56.39
2023-02-24T19:13:06.837Z,57.41
2023-02-24T19:18:08.451Z,59.46
2023-02-24T19:23:10.643Z,59.89
2023-02-24T19:28:12.161Z,60.60
2023-02-24T19:33:13.813Z,61.17
2023-02-24T19:38:17.843Z,62.45
2023-02-24T19:43:19.395Z,62.26
2023-02-24T19:48:20.877Z,62.83
2023-02-24T19:53:22.378Z,62.53
2023-02-24T19:58:23.831Z,64.28
2023-02-24T20:03:25.360Z,64.56
2023-02-24T20:08:26.904Z,65.18
2023-02-24T20:13:29.312Z,65.32
2023-02-24T20:18:31.438Z,66.52
2023-02-24T20:23:33.049Z,66.08
2023-02-24T20:28:34.518Z,66.68
2023-02-24T20:33:36.059Z,69.05
2023-02-24T20:38:38.235Z,68.73
2023-02-24T20:43:39.779Z,67.59
2023-02-24T20:48:41.508Z,69.12
2023-02-24T20:53:56.114Z,68.55
2023-02-24T20:59:01.323Z,69.76
2023-02-24T21:04:03.740Z,69.51
2023-02-24T21:09:05.403Z,69.04
2023-02-24T21:14:06.948Z,68.62
2023-02-24T21:19:08.450Z,69.78
2023-02-24T21:24:09.979Z,69.43
2023-02-24T21:29:11.674Z,69.89
2023-02-24T21:34:15.578Z,69.52
2023-02-24T21:39:17.105Z,69.73
2023-02-24T21:44:18.622Z,69.98
2023-02-24T21:49:20.196Z,70.23
2023-02-24T21:54:21.831Z,69.92
2023-02-24T21:59:23.280Z,69.14
2023-02-24T22:04:24.801Z,69.89
2023-02-24T22:09:26.269Z,69.03
2023-02-24T22:14:27.837Z,69.36
2023-02-24T22:19:29.382Z,71.58
2023-02-24T22:24:30.886Z,72.32
2023-02-24T22:29:32.342Z,72.80
2023-02-24T22:34:33.827Z,72.39
2023-02-24T22:39:35.312Z,72.46
2023-02-24T22:44:39.674Z,72.40
2023-02-24T22:49:41.282Z,72.66
2023-02-24T22:54:43.692Z,73.15
2023-02-24T22:59:45.260Z,71.98
2023-02-24T23:04:46.785Z,71.88
2023-02-24T23:09:48.292Z,71.60
2023-02-24T23:14:49.785Z,71.82
2023-02-24T23:19:51.273Z,71.93
2023-02-24T23:24:52.727Z,71.97
2023-02-24T23:29:54.186Z,71.86
2023-02-24T23:34:55.738Z,71.14
2023-02-24T23:39:57.269Z,70.38
2023-02-24T23:44:58.728Z,66.70
2023-02-24T23:50:00.266Z,66.06
2023-02-24T23:55:01.810Z,65.38
